Time;durP1;ratioP1;P1;durP2;ratioP2;P2;SDS_P1;SDS_P2;PMS_P1;PMS_P2;Temp;Humidity;BMP_temperature;BMP_pressure;BME280_temperature;BME280_humidity;BME280_pressure;Samples;Min_cycle;Max_cycle;Signal;HPM_P1;HPM_P2
2022/08/13 00:01:56;;;;;;;5.35;3.33;;;15.80;99.90;;;;;;5025616;28;20038;-41
2022/08/13 00:04:26;;;;;;;5.78;4.30;;;15.70;99.90;;;;;;5025571;28;20565;-42
2022/08/13 00:07:26;;;;;;;4.53;3.38;;;16.30;99.90;;;;;;5026582;28;20507;-41
2022/08/13 00:09:44;;;;;;;;;;;15.70;99.90;;;;;;5026414;28;20057;-43
2022/08/13 00:15:12;;;;;;;5.78;3.85;;;15.40;99.90;;;;;;5028686;28;20056;-42
2022/08/13 00:17:39;;;;;;;5.88;3.92;;;15.20;99.90;;;;;;5028570;28;20162;-41
2022/08/13 00:20:07;;;;;;;4.80;4.30;;;15.10;99.90;;;;;;5010908;28;20522;-42
2022/08/13 00:22:33;;;;;;;7.97;4.10;;;15.00;99.90;;;;;;5028694;28;20130;-41
2022/08/13 00:25:01;;;;;;;9.68;4.82;;;15.00;99.90;;;;;;5028805;28;20045;-42
2022/08/13 00:27:28;;;;;;;8.07;4.70;;;15.30;99.90;;;;;;5028435;28;20087;-42
2022/08/13 00:29:56;;;;;;;9.63;4.88;;;14.90;99.90;;;;;;5028567;28;20140;-42
2022/08/13 00:32:26;;;;;;;7.07;4.78;;;14.90;99.90;;;;;;5028813;28;20045;-42
2022/08/13 00:34:53;;;;;;;4.50;4.07;;;15.00;99.90;;;;;;5029392;28;20076;-42
2022/08/13 00:37:18;;;;;;;10.48;5.50;;;15.20;99.90;;;;;;5010518;28;20044;-41
2022/08/13 00:39:46;;;;;;;6.15;4.55;;;15.30;99.90;;;;;;5028298;28;20041;-41
2022/08/13 00:42:11;;;;;;;7.13;4.28;;;14.60;99.90;;;;;;5028258;28;20095;-41
2022/08/13 00:44:38;;;;;;;6.82;4.50;;;14.60;99.90;;;;;;5028258;28;20384;-42
2022/08/13 00:49:49;;;;;;;5.88;4.05;;;14.50;99.90;;;;;;5028956;28;20085;-43
2022/08/13 00:52:15;;;;;;;5.32;4.25;;;14.40;99.90;;;;;;5028636;28;20045;-41
2022/08/13 00:54:41;;;;;;;5.50;4.07;;;14.40;99.90;;;;;;5027977;28;20049;-41
2022/08/13 00:57:10;;;;;;;7.70;3.90;;;14.10;99.90;;;;;;5028017;28;20103;-42
2022/08/13 00:59:36;;;;;;;8.68;4.57;;;14.30;99.90;;;;;;5027767;28;20107;-42
2022/08/13 01:02:04;;;;;;;6.25;4.63;;;14.20;99.90;;;;;;5028266;28;20049;-41
2022/08/13 01:04:31;;;;;;;6.05;4.78;;;14.10;99.90;;;;;;5027475;28;20045;-41
2022/08/13 01:06:57;;;;;;;6.38;5.30;;;14.10;99.90;;;;;;5028011;28;20076;-41
2022/08/13 01:09:29;;;;;;;5.85;4.95;;;14.10;99.90;;;;;;5027103;28;20061;-42
2022/08/13 01:11:59;;;;;;;7.32;5.47;;;14.00;99.90;;;;;;5027664;28;20571;-43
2022/08/13 01:14:32;;;;;;;7.57;5.28;;;14.00;99.90;;;;;;5027696;28;20475;-41
2022/08/13 01:17:01;;;;;;;6.22;5.50;;;14.00;99.90;;;;;;5027722;28;20439;-42
2022/08/13 01:19:26;;;;;;;7.70;6.80;;;14.00;99.90;;;;;;5026475;28;20452;-41
2022/08/13 01:21:53;;;;;;;7.20;6.30;;;14.40;99.90;;;;;;5027884;28;20049;-42
2022/08/13 01:24:20;;;;;;;9.20;7.05;;;14.00;99.90;;;;;;5027450;28;20106;-41
2022/08/13 01:26:48;;;;;;;8.52;5.82;;;13.80;99.90;;;;;;5027377;28;20129;-41
2022/08/13 01:29:16;;;;;;;8.57;6.45;;;14.20;99.90;;;;;;5027438;28;20049;-41
2022/08/13 01:31:43;;;;;;;6.60;5.63;;;13.80;99.90;;;;;;5027590;28;20053;-42
2022/08/13 01:34:09;;;;;;;8.45;6.25;;;13.90;99.90;;;;;;5027547;28;20501;-43
2022/08/13 01:36:35;;;;;;;6.65;5.38;;;13.80;99.90;;;;;;5027068;28;20055;-42
2022/08/13 01:39:05;;;;;;;6.72;5.53;;;13.80;99.90;;;;;;5027238;28;20172;-41
2022/08/13 01:41:36;;;;;;;8.57;5.47;;;13.80;99.90;;;;;;5026778;28;20525;-41
2022/08/13 01:44:05;;;;;;;4.50;4.10;;;13.70;99.90;;;;;;5027343;28;20053;-42
2022/08/13 01:52:08;;;;;;;5.45;4.00;;;13.60;99.90;;;;;;5027796;28;20056;-41
2022/08/13 01:54:36;;;;;;;3.92;3.30;;;14.00;99.90;;;;;;5026836;28;20041;-42
2022/08/13 01:57:05;;;;;;;4.20;3.60;;;13.50;99.90;;;;;;5008917;28;20436;-41
2022/08/13 01:59:34;;;;;;;6.18;3.60;;;13.50;99.90;;;;;;5026485;28;20048;-42
2022/08/13 02:02:01;;;;;;;4.05;3.58;;;13.50;99.90;;;;;;5026755;28;20517;-42
2022/08/13 02:04:27;;;;;;;5.53;4.57;;;14.10;99.90;;;;;;5026491;28;20503;-41
2022/08/13 02:06:54;;;;;;;5.50;5.00;;;13.70;99.90;;;;;;5026595;28;20045;-42
2022/08/13 02:09:24;;;;;;;7.05;5.47;;;13.70;99.90;;;;;;5026555;28;20475;-41
2022/08/13 02:11:49;;;;;;;8.38;5.60;;;13.90;99.90;;;;;;5026883;28;20037;-41
2022/08/13 02:14:16;;;;;;;12.23;6.57;;;13.20;99.90;;;;;;5026682;28;20484;-42
2022/08/13 02:16:42;;;;;;;10.77;7.00;;;13.50;99.90;;;;;;5026486;28;20084;-43
2022/08/13 02:19:08;;;;;;;9.80;6.10;;;13.50;99.90;;;;;;5026691;28;20130;-41
2022/08/13 02:21:42;;;;;;;6.25;5.57;;;13.60;99.90;;;;;;5026737;28;20045;-41
2022/08/13 02:24:14;;;;;;;10.60;6.50;;;14.00;99.90;;;;;;5026436;28;20055;-41
2022/08/13 02:26:44;;;;;;;17.77;7.25;;;13.60;99.90;;;;;;5008524;28;20102;-42
2022/08/13 02:29:12;;;;;;;20.60;7.55;;;13.60;99.90;;;;;;5026484;28;20049;-42
2022/08/13 02:31:39;;;;;;;21.75;6.90;;;14.00;99.90;;;;;;5025972;28;20045;-42
2022/08/13 02:34:05;;;;;;;16.92;7.18;;;14.10;99.90;;;;;;5026831;28;20184;-41
2022/08/13 02:36:31;;;;;;;19.83;8.57;;;13.90;99.90;;;;;;5026090;28;20120;-42
2022/08/13 02:39:00;;;;;;;13.50;6.55;;;15.20;99.90;;;;;;5026521;28;20116;-41
2022/08/13 02:41:38;;;;;;;17.27;6.03;;;14.40;99.90;;;;;;5026178;28;20068;-42
2022/08/13 02:44:08;;;;;;;15.40;5.70;;;14.10;99.90;;;;;;5026412;28;20049;-41
2022/08/13 02:46:33;;;;;;;21.67;6.18;;;14.10;99.90;;;;;;5025945;28;20041;-41
2022/08/13 02:49:00;;;;;;;17.88;5.90;;;14.40;99.90;;;;;;5026125;28;20131;-41
2022/08/13 02:51:27;;;;;;;12.30;5.60;;;15.20;99.90;;;;;;5025896;28;20049;-41
2022/08/13 02:53:53;;;;;;;16.67;6.43;;;14.20;99.90;;;;;;5026091;28;20045;-41
2022/08/13 02:56:19;;;;;;;10.18;5.97;;;14.20;99.90;;;;;;5008124;28;20797;-41
2022/08/13 02:58:45;;;;;;;6.13;4.47;;;14.10;99.90;;;;;;5025574;28;20046;-42
2022/08/13 03:01:14;;;;;;;7.90;5.65;;;14.50;99.90;;;;;;5008526;28;20049;-42
2022/08/13 03:03:40;;;;;;;6.57;3.45;;;14.10;99.90;;;;;;5026016;28;20131;-43
2022/08/13 03:06:08;;;;;;;3.28;2.95;;;14.00;99.90;;;;;;5026133;28;20053;-41
2022/08/13 03:08:35;;;;;;;4.85;3.90;;;14.00;99.90;;;;;;5026112;28;20053;-41
2022/08/13 03:11:01;;;;;;;8.57;4.50;;;14.60;99.90;;;;;;5025942;28;20522;-41
2022/08/13 03:13:32;;;;;;;6.18;4.20;;;14.30;99.90;;;;;;5008117;28;20045;-41
2022/08/13 03:16:00;;;;;;;9.45;4.20;;;14.50;99.90;;;;;;5026017;28;20041;-42
2022/08/13 03:18:27;;;;;;;6.72;4.10;;;13.60;99.90;;;;;;5026041;28;20045;-43
2022/08/13 03:20:52;;;;;;;8.90;4.68;;;14.20;99.90;;;;;;5025908;28;20168;-42
2022/08/13 03:23:18;;;;;;;7.75;4.38;;;13.90;99.90;;;;;;5025926;28;20159;-41
2022/08/13 03:25:44;;;;;;;8.18;6.10;;;13.40;99.90;;;;;;5025754;28;20080;-41
2022/08/13 03:28:10;;;;;;;8.45;5.00;;;13.90;99.90;;;;;;5025750;28;20052;-41
2022/08/13 03:30:36;;;;;;;7.88;6.30;;;13.80;99.90;;;;;;5025407;28;20041;-41
2022/08/13 03:33:08;;;;;;;10.15;6.53;;;13.90;99.90;;;;;;5025485;28;20147;-43
2022/08/13 03:35:37;;;;;;;8.43;6.55;;;13.40;99.90;;;;;;5025390;28;20560;-42
2022/08/13 03:38:08;;;;;;;6.85;4.93;;;13.90;99.90;;;;;;5025960;28;20045;-41
2022/08/13 03:43:19;;;;;;;4.28;3.72;;;13.30;99.90;;;;;;5028674;28;20107;-41
2022/08/13 03:45:46;;;;;;;5.30;3.53;;;13.70;99.90;;;;;;5029223;28;20055;-42
2022/08/13 03:48:13;;;;;;;3.35;2.50;;;13.20;99.90;;;;;;5029841;28;20475;-42
2022/08/13 03:50:41;;;;;;;3.83;3.28;;;;;;;;;;5029029;28;20054;-41
2022/08/13 03:53:07;;;;;;;5.70;4.15;;;13.00;99.90;;;;;;5029620;28;20038;-41
2022/08/13 03:55:33;;;;;;;4.90;2.80;;;13.00;99.90;;;;;;5029534;28;20045;-42
2022/08/13 03:58:00;;;;;;;4.20;3.38;;;12.90;99.90;;;;;;5029614;28;20087;-41
2022/08/13 04:00:28;;;;;;;5.72;4.55;;;12.90;99.90;;;;;;5028896;28;20053;-42
2022/08/13 04:02:55;;;;;;;5.72;5.18;;;12.80;99.90;;;;;;5028422;28;20056;-42
2022/08/13 04:05:22;;;;;;;6.82;6.22;;;12.90;99.90;;;;;;5028810;28;20049;-41
2022/08/13 04:07:52;;;;;;;5.53;3.83;;;12.70;99.90;;;;;;5028120;28;20499;-41
2022/08/13 04:10:18;;;;;;;4.80;3.63;;;12.80;99.90;;;;;;5011089;28;20419;-44
2022/08/13 04:12:44;;;;;;;3.80;3.45;;;12.80;99.90;;;;;;5028383;28;20234;-43
2022/08/13 04:15:10;;;;;;;6.13;3.00;;;13.10;99.90;;;;;;5029013;28;20546;-43
2022/08/13 04:17:36;;;;;;;4.70;2.03;;;12.70;99.90;;;;;;5028331;28;20503;-43
2022/08/13 04:20:09;;;;;;;3.33;3.03;;;13.10;99.90;;;;;;5028615;28;20090;-43
2022/08/13 04:22:37;;;;;;;12.52;6.53;;;12.70;99.90;;;;;;5028844;28;20458;-43
2022/08/13 04:25:07;;;;;;;13.63;7.65;;;12.70;99.90;;;;;;5028835;28;20366;-43
2022/08/13 04:27:34;;;;;;;22.05;8.00;;;12.70;99.90;;;;;;5028962;28;20041;-43
2022/08/13 04:30:01;;;;;;;10.70;6.90;;;12.60;99.90;;;;;;5028591;28;20041;-43
2022/08/13 04:32:27;;;;;;;10.65;7.32;;;13.50;99.90;;;;;;5028325;28;20088;-43
2022/08/13 04:34:53;;;;;;;7.65;3.92;;;13.00;99.90;;;;;;5027990;28;20041;-43
2022/08/13 04:37:18;;;;;;;7.78;5.10;;;12.70;99.90;;;;;;5028488;28;20365;-42
2022/08/13 04:39:44;;;;;;;5.72;4.00;;;12.60;99.90;;;;;;5027959;28;20080;-43
2022/08/13 04:42:11;;;;;;;8.73;7.15;;;12.50;99.90;;;;;;5027878;28;20064;-43
2022/08/13 04:44:37;;;;;;;10.35;9.15;;;12.60;99.90;;;;;;5028487;28;20408;-43
2022/08/13 04:47:04;;;;;;;12.77;9.02;;;12.60;99.90;;;;;;5027932;28;20041;-43
2022/08/13 04:49:31;;;;;;;15.20;10.15;;;12.70;99.90;;;;;;5028181;28;20087;-43
2022/08/13 04:51:57;;;;;;;11.10;8.50;;;12.60;99.90;;;;;;5027656;28;20038;-45
2022/08/13 04:54:22;;;;;;;8.82;7.93;;;12.90;99.90;;;;;;5027911;28;20040;-43
2022/08/13 04:56:48;;;;;;;7.32;6.63;;;13.50;99.90;;;;;;5027500;28;20065;-43
2022/08/13 04:59:14;;;;;;;10.15;7.38;;;13.10;99.90;;;;;;5028106;28;20045;-43
2022/08/13 05:01:39;;;;;;;8.98;7.72;;;13.10;99.90;;;;;;5027863;28;20077;-44
2022/08/13 05:04:05;;;;;;;8.98;8.07;;;12.90;99.90;;;;;;5010354;28;20076;-43
2022/08/13 05:06:31;;;;;;;9.07;7.68;;;13.00;99.90;;;;;;5028291;28;20076;-42
2022/08/13 05:09:02;;;;;;;8.50;7.70;;;13.10;99.90;;;;;;5027611;28;20431;-43
2022/08/13 05:11:29;;;;;;;6.10;5.35;;;13.20;99.90;;;;;;5027885;28;20095;-43
2022/08/13 05:13:55;;;;;;;7.72;6.35;;;14.20;99.90;;;;;;5027781;28;20422;-43
2022/08/13 05:16:20;;;;;;;7.82;5.95;;;14.30;99.90;;;;;;5028230;28;20042;-43
2022/08/13 05:18:54;;;;;;;9.02;7.10;;;14.30;99.90;;;;;;5027691;28;20442;-44
2022/08/13 05:21:23;;;;;;;7.85;6.88;;;14.30;99.90;;;;;;5009914;28;20045;-43
2022/08/13 05:23:53;;;;;;;9.55;6.72;;;14.70;99.90;;;;;;5027731;28;20080;-43
2022/08/13 05:26:21;;;;;;;7.28;6.57;;;14.60;99.90;;;;;;5027588;28;20053;-43
2022/08/13 05:28:49;;;;;;;10.70;7.57;;;14.90;99.90;;;;;;5027581;28;20561;-44
2022/08/13 05:31:17;;;;;;;9.68;6.30;;;14.90;99.90;;;;;;5028379;28;20175;-43
2022/08/13 05:33:44;;;;;;;11.27;6.22;;;15.10;99.90;;;;;;5027726;28;20073;-45
2022/08/13 05:36:11;;;;;;;7.35;6.45;;;15.30;99.90;;;;;;5027672;28;20045;-44
2022/08/13 05:38:37;;;;;;;9.55;6.10;;;14.60;99.90;;;;;;5027394;28;20096;-44
2022/08/13 05:41:07;;;;;;;6.45;5.50;;;16.60;99.90;;;;;;5027500;28;20116;-43
2022/08/13 05:43:37;;;;;;;11.18;6.45;;;17.00;99.90;;;;;;5027631;28;20534;-44
2022/08/13 05:46:08;;;;;;;12.82;5.93;;;17.00;99.90;;;;;;5027835;28;20502;-43
2022/08/13 05:48:39;;;;;;;12.48;5.93;;;17.10;99.90;;;;;;5027757;28;20041;-44
2022/08/13 05:51:08;;;;;;;10.85;4.90;;;17.40;99.90;;;;;;5027694;28;20045;-44
2022/08/13 05:53:37;;;;;;;16.75;5.38;;;17.70;99.90;;;;;;5027701;28;20067;-43
2022/08/13 05:56:04;;;;;;;11.43;5.03;;;17.80;99.90;;;;;;5026898;28;20047;-43
2022/08/13 05:58:30;;;;;;;16.10;5.90;;;18.00;99.90;;;;;;5009344;28;20088;-43
2022/08/13 06:03:41;;;;;;;9.60;4.90;;;19.70;99.90;;;;;;5026970;28;20053;-43
2022/08/13 06:06:10;;;;;;;15.23;4.43;;;21.20;99.50;;;;;;5026459;28;20056;-44
2022/08/13 06:08:42;;;;;;;11.23;4.07;;;22.20;97.30;;;;;;5026408;28;20065;-44
2022/08/13 06:11:14;;;;;;;5.38;3.80;;;24.20;92.00;;;;;;5026906;28;20056;-45
2022/08/13 06:13:40;;;;;;;7.72;4.10;;;25.60;84.30;;;;;;5026687;28;20267;-43
2022/08/13 06:16:08;;;;;;;8.48;3.97;;;26.30;78.10;;;;;;5026309;28;20212;-45
2022/08/13 06:18:40;;;;;;;10.50;3.75;;;25.30;77.70;;;;;;5026644;28;20394;-44
2022/08/13 06:21:11;;;;;;;9.25;3.85;;;24.10;82.40;;;;;;5026465;28;20081;-43
2022/08/13 06:23:38;;;;;;;9.90;3.95;;;24.20;81.30;;;;;;5027111;28;20466;-44
2022/08/13 06:26:06;;;;;;;7.03;3.50;;;24.00;81.30;;;;;;5026486;28;20077;-45
2022/08/13 06:28:33;;;;;;;4.57;3.95;;;23.50;82.50;;;;;;5026233;28;20045;-43
2022/08/13 06:31:03;;;;;;;7.32;3.67;;;23.30;84.90;;;;;;5026271;28;20116;-45
2022/08/13 06:33:30;;;;;;;5.88;3.90;;;24.60;83.00;;;;;;5026452;28;20079;-45
2022/08/13 06:35:58;;;;;;;7.78;4.00;;;26.50;77.20;;;;;;5026280;28;20096;-45
2022/08/13 06:38:44;;;;;;;7.63;2.85;;;28.00;72.60;;;;;;5026318;28;20099;-45
2022/08/13 06:41:12;;;;;;;9.52;2.80;;;28.70;67.50;;;;;;5026058;28;20064;-44
2022/08/13 06:43:49;;;;;;;5.00;2.40;;;27.50;68.10;;;;;;5026150;28;20045;-44
2022/08/13 06:46:22;;;;;;;2.85;2.50;;;26.60;70.60;;;;;;5025657;28;20131;-44
2022/08/13 06:48:49;;;;;;;6.72;2.47;;;25.90;71.90;;;;;;5025211;28;20049;-46
2022/08/13 06:51:14;;;;;;;7.60;2.60;;;25.40;74.80;;;;;;5025632;28;20029;-45
2022/08/13 06:53:43;;;;;;;4.93;2.30;;;25.50;75.10;;;;;;5025751;28;20499;-44
2022/08/13 06:56:12;;;;;;;3.47;2.08;;;26.80;72.40;;;;;;5025324;28;20052;-44
2022/08/13 06:58:41;;;;;;;3.72;1.88;;;28.10;69.30;;;;;;5025924;28;20046;-44
2022/08/13 07:01:09;;;;;;;6.90;1.40;;;28.80;67.60;;;;;;5006559;28;20503;-44
2022/08/13 07:03:39;;;;;;;3.17;1.20;;;29.50;65.30;;;;;;5024966;28;20048;-44
2022/08/13 07:06:14;;;;;;;3.13;1.30;;;30.80;62.10;;;;;;5025345;28;20112;-44
2022/08/13 07:08:40;;;;;;;4.82;1.52;;;31.80;59.70;;;;;;5024756;28;20085;-46
2022/08/13 07:11:24;;;;;;;3.38;1.20;;;32.60;57.40;;;;;;5025032;28;20514;-45
2022/08/13 07:13:53;;;;;;;2.80;0.77;;;31.40;57.00;;;;;;5024960;28;20483;-45
2022/08/13 07:16:22;;;;;;;1.65;0.73;;;30.20;58.00;;;;;;5025310;28;20427;-44
2022/08/13 07:18:50;;;;;;;7.85;0.93;;;29.40;58.60;;;;;;5029133;28;20038;-44
2022/08/13 07:21:21;;;;;;;3.95;0.93;;;28.80;60.30;;;;;;5028865;28;20042;-45
2022/08/13 07:23:49;;;;;;;1.80;1.02;;;28.30;61.10;;;;;;5028902;28;20565;-45
2022/08/13 07:26:18;;;;;;;2.38;0.75;;;27.90;61.30;;;;;;5028636;28;20523;-46
2022/08/13 07:28:46;;;;;;;6.10;0.70;;;27.60;62.00;;;;;;5028751;28;20049;-46
2022/08/13 07:31:13;;;;;;;3.03;0.70;;;28.00;62.30;;;;;;5028795;28;20049;-47
2022/08/13 07:33:51;;;;;;;3.53;0.95;;;28.30;61.50;;;;;;5007974;28;20034;-45
2022/08/13 07:36:19;;;;;;;7.82;0.82;;;28.00;60.60;;;;;;5028059;28;20049;-44
2022/08/13 07:38:46;;;;;;;2.63;0.82;;;27.70;61.20;;;;;;5028262;28;20136;-45
2022/08/13 07:41:13;;;;;;;3.03;0.82;;;27.50;61.20;;;;;;5028481;28;20053;-49
2022/08/13 07:43:43;;;;;;;3.65;0.50;;;27.40;61.90;;;;;;5028543;28;20128;-46
2022/08/13 07:46:12;;;;;;;3.92;0.68;;;27.70;62.40;;;;;;5029187;28;20160;-45
2022/08/13 07:48:42;;;;;;;2.30;0.30;;;30.10;60.40;;;;;;5028820;28;20048;-46
2022/08/13 07:51:21;;;;;;;1.35;0.43;;;32.20;57.10;;;;;;5028973;28;20041;-46
2022/08/13 07:53:54;;;;;;;2.05;0.52;;;33.40;55.00;;;;;;5026970;28;20065;-46
2022/08/13 07:56:28;;;;;;;1.73;0.32;;;32.80;53.70;;;;;;5023238;28;20091;-46
2022/08/13 07:59:00;;;;;;;4.93;0.70;;;32.30;53.70;;;;;;5029116;28;20045;-46
2022/08/13 08:01:27;;;;;;;6.13;0.65;;;32.40;53.80;;;;;;5028107;28;20262;-46
2022/08/13 08:03:57;;;;;;;3.50;0.38;;;34.00;53.00;;;;;;5029185;28;20042;-46
2022/08/13 08:06:24;;;;;;;4.88;0.55;;;35.70;50.80;;;;;;5029602;28;20067;-45
2022/08/13 08:08:52;;;;;;;4.55;0.30;;;37.20;48.90;;;;;;5029669;28;20057;-45
2022/08/13 08:14:04;;;;;;;2.95;0.30;;;39.00;45.60;;;;;;5029037;28;20124;-46
2022/08/13 08:16:31;;;;;;;6.32;0.40;;;39.90;45.10;;;;;;5029181;28;20120;-47
2022/08/13 08:19:00;;;;;;;5.18;0.40;;;40.70;44.30;;;;;;5028720;28;20049;-46
2022/08/13 08:21:26;;;;;;;3.20;0.40;;;41.60;43.30;;;;;;5028470;28;20037;-47
2022/08/13 08:23:57;;;;;;;5.85;0.30;;;42.20;42.60;;;;;;5028614;28;20128;-48
2022/08/13 08:26:32;;;;;;;1.33;0.30;;;42.90;40.70;;;;;;5025827;28;20364;-45
2022/08/13 08:29:00;;;;;;;3.58;0.30;;;43.40;40.10;;;;;;5028692;28;20083;-45
2022/08/13 08:31:27;;;;;;;1.23;0.30;;;43.70;39.20;;;;;;5029242;28;20138;-45
2022/08/13 08:33:56;;;;;;;1.45;0.20;;;43.90;38.40;;;;;;5028853;28;20042;-45
2022/08/13 08:36:23;;;;;;;6.07;0.30;;;43.90;38.10;;;;;;5025987;28;20041;-44
2022/08/13 08:44:24;;;;;;;1.63;0.30;;;44.90;37.50;;;;;;5027489;28;20403;-44
2022/08/13 08:46:59;;;;;;;2.05;0.40;;;45.00;37.10;;;;;;5027421;28;20387;-46
2022/08/13 08:49:25;;;;;;;1.13;0.30;;;45.10;37.30;;;;;;5027018;28;20045;-44
2022/08/13 08:51:52;;;;;;;2.25;0.50;;;45.20;36.90;;;;;;5027623;28;20043;-45
2022/08/13 08:54:20;;;;;;;4.80;0.20;;;45.30;36.70;;;;;;5028050;28;20077;-42
2022/08/13 08:56:54;;;;;;;1.77;0.30;;;45.40;36.70;;;;;;5028202;28;20441;-44
2022/08/13 08:59:23;;;;;;;1.73;0.30;;;45.60;37.40;;;;;;5027939;28;20124;-43
2022/08/13 09:01:55;;;;;;;2.80;0.30;;;46.10;36.80;;;;;;5027892;28;20045;-43
2022/08/13 09:04:22;;;;;;;2.15;0.30;;;46.60;35.90;;;;;;5024961;28;20126;-42
2022/08/13 09:06:52;;;;;;;3.20;0.30;;;47.00;34.90;;;;;;5027776;28;20394;-42
2022/08/13 09:09:19;;;;;;;1.67;0.20;;;47.40;34.50;;;;;;5027661;28;20088;-42
2022/08/13 09:11:50;;;;;;;2.67;0.20;;;47.70;35.00;;;;;;5028362;28;20042;-41
2022/08/13 09:14:18;;;;;;;2.80;0.30;;;48.00;33.70;;;;;;5027872;28;20079;-41
2022/08/13 09:16:45;;;;;;;2.58;0.35;;;47.90;33.90;;;;;;5028211;28;20044;-42
2022/08/13 09:19:14;;;;;;;3.40;0.30;;;47.50;34.30;;;;;;5028337;28;20049;-41
2022/08/13 09:21:47;;;;;;;2.05;0.45;;;46.90;33.90;;;;;;5027250;28;20107;-41
2022/08/13 09:24:15;;;;;;;0.60;0.30;;;46.70;34.10;;;;;;5022856;28;20045;-45
2022/08/13 09:26:51;;;;;;;2.25;0.30;;;46.60;34.20;;;;;;5025531;28;20069;-42
2022/08/13 09:29:20;;;;;;;3.05;0.30;;;46.80;34.40;;;;;;5026902;28;20053;-44
2022/08/13 09:31:50;;;;;;;2.53;0.30;;;46.80;34.10;;;;;;5027046;28;20053;-43
2022/08/13 09:34:17;;;;;;;3.20;0.30;;;47.10;33.70;;;;;;5026432;28;20041;-44
2022/08/13 09:36:44;;;;;;;2.83;0.30;;;47.50;33.20;;;;;;5026832;28;20120;-43
2022/08/13 09:39:26;;;;;;;5.82;0.30;;;47.80;32.90;;;;;;5025345;28;20045;-42
2022/08/13 09:41:54;;;;;;;1.58;0.30;;;47.80;33.30;;;;;;5025037;28;20099;-43
2022/08/13 09:44:20;;;;;;;5.10;0.40;;;47.50;33.50;;;;;;5026731;28;20110;-43
2022/08/13 09:46:46;;;;;;;3.92;0.20;;;47.40;33.60;;;;;;5022953;28;20053;-44
2022/08/13 09:49:12;;;;;;;2.88;0.30;;;47.50;33.50;;;;;;5024328;28;20037;-43
2022/08/13 09:51:38;;;;;;;1.85;0.20;;;47.40;32.80;;;;;;5026187;28;20570;-42
2022/08/13 09:54:09;;;;;;;1.70;0.22;;;47.30;34.20;;;;;;5026142;28;20060;-43
2022/08/13 09:56:37;;;;;;;2.55;0.20;;;47.30;32.90;;;;;;5024359;28;20037;-43
2022/08/13 09:59:08;;;;;;;1.27;0.40;;;46.90;32.80;;;;;;5026158;28;20037;-45
2022/08/13 10:01:35;;;;;;;1.10;0.63;;;46.90;31.90;;;;;;5024653;28;20037;-44
2022/08/13 10:04:01;;;;;;;2.90;0.30;;;46.80;32.40;;;;;;5025754;28;20178;-43
2022/08/13 10:06:28;;;;;;;1.10;0.20;;;46.50;32.20;;;;;;5025342;28;20048;-43
2022/08/13 10:08:55;;;;;;;0.60;0.20;;;46.20;32.80;;;;;;5024101;28;20507;-42
2022/08/13 10:11:24;;;;;;;3.70;0.35;;;45.70;33.00;;;;;;5025714;28;20389;-44
2022/08/13 10:13:50;;;;;;;2.67;0.10;;;45.10;33.70;;;;;;5025566;28;20051;-44
2022/08/13 10:16:16;;;;;;;4.10;0.20;;;44.60;33.30;;;;;;5025755;28;20403;-44
2022/08/13 10:18:42;;;;;;;2.15;0.45;;;44.40;34.80;;;;;;5025663;28;20477;-44
2022/08/13 10:21:10;;;;;;;0.50;0.20;;;44.30;34.90;;;;;;5026144;28;20053;-44
2022/08/13 10:23:36;;;;;;;1.40;0.20;;;44.10;33.70;;;;;;5025626;28;20042;-44
2022/08/13 10:26:02;;;;;;;1.27;0.30;;;43.50;33.50;;;;;;5026046;28;20506;-43
2022/08/13 10:28:34;;;;;;;0.88;0.20;;;43.00;33.80;;;;;;5025668;28;20377;-42
2022/08/13 10:31:08;;;;;;;2.15;0.30;;;42.10;34.10;;;;;;5026151;28;20501;-42
2022/08/13 10:33:37;;;;;;;2.05;0.30;;;41.20;35.40;;;;;;5005207;28;20446;-43
2022/08/13 10:36:05;;;;;;;2.50;0.30;;;40.10;35.60;;;;;;5024766;28;20120;-43
2022/08/13 10:38:32;;;;;;;2.85;0.30;;;39.60;36.00;;;;;;5025615;28;20056;-43
2022/08/13 10:41:07;;;;;;;2.60;0.20;;;39.50;36.10;;;;;;5026144;28;20049;-43
2022/08/13 10:43:38;;;;;;;6.13;0.50;;;39.90;35.10;;;;;;5024111;28;20049;-42
2022/08/13 10:46:05;;;;;;;2.35;0.30;;;40.20;35.60;;;;;;5024406;28;20073;-43
2022/08/13 10:48:31;;;;;;;1.70;0.20;;;40.50;35.30;;;;;;5024859;28;20037;-43
2022/08/13 10:50:57;;;;;;;2.80;0.40;;;40.20;35.60;;;;;;5024866;28;20049;-42
2022/08/13 10:56:08;;;;;;;1.90;0.20;;;38.70;36.00;;;;;;5025008;28;20041;-43
2022/08/13 10:58:34;;;;;;;2.53;0.20;;;37.50;37.00;;;;;;5022531;28;20051;-42
2022/08/13 11:01:03;;;;;;;2.95;0.20;;;36.40;38.10;;;;;;5024853;28;20045;-44
2022/08/13 11:03:33;;;;;;;1.40;0.20;;;35.60;38.70;;;;;;5024760;28;20123;-43
2022/08/13 11:06:00;;;;;;;0.52;0.30;;;34.90;39.70;;;;;;5024665;28;20026;-42
2022/08/13 11:08:38;;;;;;;1.48;0.30;;;34.20;39.70;;;;;;5024285;28;20053;-43
2022/08/13 11:11:09;;;;;;;1.77;0.30;;;33.70;40.00;;;;;;5023931;28;20388;-42
2022/08/13 11:13:36;;;;;;;1.92;0.25;;;33.20;41.70;;;;;;5022860;28;20118;-43
2022/08/13 11:16:08;;;;;;;0.85;0.20;;;32.90;42.90;;;;;;5024997;28;20179;-43
2022/08/13 11:18:35;;;;;;;3.65;0.57;;;32.60;41.80;;;;;;5024673;28;20475;-43
2022/08/13 11:21:06;;;;;;;2.65;0.30;;;32.40;42.20;;;;;;5025333;28;20044;-42
2022/08/13 11:23:32;;;;;;;3.60;0.68;;;32.20;42.10;;;;;;5025421;28;20044;-41
2022/08/13 11:25:58;;;;;;;2.38;0.77;;;32.10;41.70;;;;;;5022605;28;20038;-42
2022/08/13 11:28:24;;;;;;;2.03;0.22;;;32.00;43.60;;;;;;5025068;28;20045;-41
2022/08/13 11:30:52;;;;;;;1.35;0.30;;;31.90;43.40;;;;;;5024077;28;20061;-42
2022/08/13 11:33:19;;;;;;;1.55;0.40;;;31.70;43.20;;;;;;5025913;28;20072;-41
2022/08/13 11:35:45;;;;;;;1.80;0.20;;;31.60;43.20;;;;;;5026426;28;20046;-41
2022/08/13 11:38:13;;;;;;;2.42;0.30;;;31.60;42.30;;;;;;5026933;28;20052;-42
2022/08/13 11:40:44;;;;;;;1.80;0.25;;;31.50;42.50;;;;;;5026570;28;20037;-44
2022/08/13 11:43:09;;;;;;;;;;;31.50;42.50;;;;;;5026721;28;20041;-42
2022/08/13 11:45:35;;;;;;;0.90;0.20;;;31.50;43.40;;;;;;5025418;28;19921;-43
2022/08/13 11:48:01;;;;;;;0.98;0.30;;;31.40;42.10;;;;;;5025917;28;20152;-44
2022/08/13 11:50:26;;;;;;;4.88;0.30;;;31.30;43.10;;;;;;5026637;28;20084;-42
2022/08/13 11:52:52;;;;;;;1.60;0.35;;;31.20;54.70;;;;;;5026747;28;20033;-42
2022/08/13 11:55:18;;;;;;;2.30;0.40;;;31.00;43.80;;;;;;5026304;28;20120;-44
2022/08/13 11:57:43;;;;;;;1.58;0.40;;;30.90;44.20;;;;;;5026232;28;20079;-43
2022/08/13 12:00:10;;;;;;;3.47;0.50;;;30.90;44.30;;;;;;5025977;28;20042;-42
2022/08/13 12:02:35;;;;;;;3.65;0.40;;;30.80;44.80;;;;;;5026018;28;20038;-43
2022/08/13 12:05:01;;;;;;;2.13;0.30;;;30.80;45.10;;;;;;5029808;28;20400;-43
2022/08/13 12:07:27;;;;;;;0.75;0.20;;;30.80;45.10;;;;;;5029396;28;20447;-42
2022/08/13 12:09:54;;;;;;;2.55;0.50;;;30.80;45.00;;;;;;5029660;28;20053;-43
2022/08/13 12:12:20;;;;;;;2.47;0.30;;;30.80;43.90;;;;;;5029803;28;20045;-44
2022/08/13 12:14:45;;;;;;;3.35;0.60;;;30.80;44.40;;;;;;5029355;28;20396;-42
2022/08/13 12:17:11;;;;;;;1.52;0.45;;;30.80;45.10;;;;;;5029850;28;20476;-42
2022/08/13 12:19:37;;;;;;;2.58;0.30;;;30.80;45.90;;;;;;5029989;28;20541;-44
2022/08/13 12:22:02;;;;;;;2.03;0.40;;;30.80;45.70;;;;;;5012623;28;20047;-43
2022/08/13 12:24:28;;;;;;;2.42;0.55;;;30.70;45.30;;;;;;5029915;28;20099;-46
2022/08/13 12:26:54;;;;;;;1.92;0.40;;;30.40;45.80;;;;;;5029366;28;20084;-43
2022/08/13 12:29:19;;;;;;;3.30;0.40;;;30.40;46.30;;;;;;5029433;28;20076;-45
2022/08/13 12:31:45;;;;;;;2.78;0.63;;;30.40;46.60;;;;;;5028952;28;20419;-43
2022/08/13 12:34:10;;;;;;;2.25;0.40;;;30.50;45.70;;;;;;5011393;28;20053;-44
2022/08/13 12:36:36;;;;;;;1.98;0.45;;;30.60;45.30;;;;;;5029253;28;20045;-45
2022/08/13 12:39:03;;;;;;;2.50;0.50;;;30.60;45.40;;;;;;5029408;28;20051;-44
2022/08/13 12:41:30;;;;;;;1.17;0.38;;;30.70;45.00;;;;;;5028321;28;20566;-43
2022/08/13 12:43:55;;;;;;;1.98;0.45;;;30.70;44.70;;;;;;5028983;28;20045;-43
2022/08/13 12:46:21;;;;;;;3.22;0.40;;;30.80;45.00;;;;;;5028956;28;20396;-44
2022/08/13 12:48:46;;;;;;;1.73;0.40;;;31.00;45.20;;;;;;5028990;28;20092;-45
2022/08/13 12:51:12;;;;;;;2.70;0.63;;;31.10;46.00;;;;;;5028888;28;20394;-43
2022/08/13 12:53:38;;;;;;;0.80;0.30;;;31.30;45.90;;;;;;5028912;28;20863;-44
2022/08/13 12:56:03;;;;;;;1.13;0.50;;;31.50;45.50;;;;;;5028604;28;20053;-43
2022/08/13 12:58:29;;;;;;;2.97;0.40;;;31.60;44.30;;;;;;5010524;28;20045;-43
2022/08/13 13:00:56;;;;;;;2.55;0.40;;;31.70;44.50;;;;;;5028790;28;20046;-43
2022/08/13 13:03:23;;;;;;;2.92;0.45;;;31.70;45.10;;;;;;5029160;28;20045;-43
2022/08/13 13:05:50;;;;;;;2.50;0.30;;;31.60;44.50;;;;;;5028641;28;20037;-45
2022/08/13 13:08:24;;;;;;;2.05;0.40;;;31.50;44.00;;;;;;5028572;28;20628;-42
2022/08/13 13:10:53;;;;;;;2.08;0.40;;;31.20;43.80;;;;;;5028585;28;20158;-42
2022/08/13 13:13:21;;;;;;;2.42;0.40;;;31.00;44.30;;;;;;5029073;28;20080;-43
2022/08/13 13:15:47;;;;;;;3.55;0.60;;;31.00;45.50;;;;;;5027883;28;20084;-44
2022/08/13 13:18:16;;;;;;;2.17;0.43;;;31.00;45.00;;;;;;5029145;28;20126;-45